createdAt,value
2023-04-15T00:01:52.567Z,100176.91
2023-04-15T00:04:19.299Z,100175.56
2023-04-15T00:06:53.523Z,100172.69
2023-04-15T00:09:20.809Z,100169.00
2023-04-15T00:11:47.301Z,100175.34
2023-04-15T00:14:13.813Z,100169.72
2023-04-15T00:16:40.424Z,100166.84
2023-04-15T00:19:06.868Z,100169.19
2023-04-15T00:21:33.609Z,100167.16
2023-04-15T00:24:00.192Z,100159.97
2023-04-15T00:26:27.013Z,100169.50
2023-04-15T00:28:53.800Z,100164.28
2023-04-15T00:31:20.947Z,100163.09
2023-04-15T00:33:47.806Z,100162.22
2023-04-15T00:36:14.603Z,100168.59
2023-04-15T00:38:41.368Z,100162.53
2023-04-15T00:41:09.276Z,100163.72
2023-04-15T00:43:35.945Z,100166.53
2023-04-15T00:46:05.021Z,100168.09
2023-04-15T00:48:32.384Z,100163.31
2023-04-15T00:50:59.190Z,100162.84
2023-04-15T00:53:25.739Z,100156.03
2023-04-15T00:55:52.708Z,100161.97
2023-04-15T00:58:19.273Z,100157.56
2023-04-15T01:00:46.698Z,100162.28
2023-04-15T01:03:14.205Z,100163.38
2023-04-15T01:05:41.850Z,100150.56
2023-04-15T01:08:08.346Z,100148.91
2023-04-15T01:10:35.971Z,100152.41
2023-04-15T01:13:03.329Z,100157.91
2023-04-15T01:15:30.635Z,100152.25
2023-04-15T01:17:59.596Z,100157.00
2023-04-15T01:20:26.238Z,100156.53
2023-04-15T01:22:54.533Z,100152.84
2023-04-15T01:25:34.922Z,100162.66
2023-04-15T01:28:02.452Z,100159.09
2023-04-15T01:30:29.164Z,100164.56
2023-04-15T01:32:56.059Z,100167.66
2023-04-15T01:35:23.676Z,100158.78
2023-04-15T01:37:50.309Z,100167.06
2023-04-15T01:40:17.061Z,100166.56
2023-04-15T01:42:43.556Z,100169.25
2023-04-15T01:45:10.402Z,100161.19
2023-04-15T01:47:37.135Z,100154.38
2023-04-15T01:50:03.830Z,100162.66
2023-04-15T01:52:30.480Z,100158.97
2023-04-15T01:54:57.134Z,100163.31
2023-04-15T01:57:23.539Z,100167.63
2023-04-15T01:59:50.059Z,100160.34
2023-04-15T02:02:17.603Z,100163.53
2023-04-15T02:04:44.615Z,100158.66
2023-04-15T02:07:11.365Z,100163.34
2023-04-15T02:09:38.660Z,100167.22
2023-04-15T02:12:05.833Z,100170.75
2023-04-15T02:14:32.351Z,100165.09
2023-04-15T02:17:02.524Z,100168.94
2023-04-15T02:19:28.868Z,100166.91
2023-04-15T02:21:55.447Z,100171.59
2023-04-15T02:24:22.074Z,100163.13
2023-04-15T02:26:48.471Z,100170.59
2023-04-15T02:29:15.049Z,100172.13
2023-04-15T02:31:42.452Z,100172.41
2023-04-15T02:34:09.215Z,100181.84
2023-04-15T02:36:36.473Z,100190.09
2023-04-15T02:39:04.250Z,100180.03
2023-04-15T02:41:30.793Z,100186.31
2023-04-15T02:43:57.473Z,100192.63
2023-04-15T02:46:24.331Z,100196.56
2023-04-15T02:48:51.001Z,100200.88
2023-04-15T02:51:20.422Z,100215.84
2023-04-15T02:53:50.032Z,100207.03
2023-04-15T02:56:17.322Z,100213.75
2023-04-15T02:58:45.562Z,100220.88
2023-04-15T03:01:12.124Z,100217.28
2023-04-15T03:03:38.584Z,100217.59
2023-04-15T03:06:05.425Z,100221.94
2023-04-15T03:08:31.925Z,100219.50
2023-04-15T03:11:00.858Z,100217.06
2023-04-15T03:13:27.347Z,100220.59
2023-04-15T03:15:55.829Z,100217.34
2023-04-15T03:18:22.106Z,100225.25
2023-04-15T03:20:48.478Z,100220.00
2023-04-15T03:23:14.928Z,100222.72
2023-04-15T03:25:42.204Z,100226.09
2023-04-15T03:28:08.881Z,100226.00
2023-04-15T03:30:35.422Z,100219.97
2023-04-15T03:33:01.906Z,100226.25
2023-04-15T03:35:28.351Z,100227.78
2023-04-15T03:37:54.706Z,100229.28
2023-04-15T03:40:21.686Z,100234.75
2023-04-15T03:42:48.223Z,100242.31
2023-04-15T03:45:14.673Z,100233.84
2023-04-15T03:47:41.100Z,100240.91
2023-04-15T03:50:08.653Z,100241.63
2023-04-15T03:52:35.592Z,100235.59
2023-04-15T03:55:02.253Z,100238.31
2023-04-15T03:57:28.745Z,100241.41
2023-04-15T03:59:55.289Z,100238.53
2023-04-15T04:02:23.136Z,100234.94
2023-04-15T04:04:49.905Z,100233.31
2023-04-15T04:07:17.092Z,100233.31
2023-04-15T04:09:44.165Z,100230.53
2023-04-15T04:12:11.765Z,100230.91
2023-04-15T04:14:38.110Z,100238.88
2023-04-15T04:17:04.644Z,100225.72
2023-04-15T04:19:31.255Z,100238.78
2023-04-15T04:21:57.975Z,100230.78
2023-04-15T04:24:24.420Z,100235.91
2023-04-15T04:26:51.305Z,100239.81
2023-04-15T04:29:17.744Z,100246.91
2023-04-15T04:31:44.528Z,100249.25
2023-04-15T04:34:11.057Z,100246.78
2023-04-15T04:36:37.627Z,100253.53
2023-04-15T04:39:04.075Z,100255.84
2023-04-15T04:41:30.932Z,100258.16
2023-04-15T04:43:57.527Z,100256.53
2023-04-15T04:46:24.014Z,100262.09
2023-04-15T04:48:50.959Z,100262.09
2023-04-15T04:51:18.321Z,100261.28
2023-04-15T04:53:44.991Z,100264.06
2023-04-15T04:56:11.600Z,100261.28
2023-04-15T04:58:38.236Z,100271.25
2023-04-15T05:01:04.788Z,100276.00
2023-04-15T05:03:31.329Z,100276.81
2023-04-15T05:05:57.998Z,100279.59
2023-04-15T05:08:24.333Z,100281.19
2023-04-15T05:10:50.742Z,100277.25
2023-04-15T05:13:17.253Z,100279.69
2023-04-15T05:15:43.739Z,100286.88
2023-04-15T05:18:10.504Z,100290.94
2023-04-15T05:20:37.120Z,100287.44
2023-04-15T05:23:03.802Z,100292.31
2023-04-15T05:25:30.173Z,100298.31
2023-04-15T05:27:56.610Z,100294.84
2023-04-15T05:30:23.251Z,100302.81
2023-04-15T05:32:50.230Z,100312.09
2023-04-15T05:35:19.589Z,100310.59
2023-04-15T05:37:46.849Z,100310.34
2023-04-15T05:40:13.382Z,100311.59
2023-04-15T05:42:39.803Z,100323.66
2023-04-15T05:45:10.212Z,100319.34
2023-04-15T05:47:37.545Z,100323.03
2023-04-15T05:50:05.161Z,100333.13
2023-04-15T05:52:32.006Z,100332.88
2023-04-15T05:54:58.430Z,100339.00
2023-04-15T05:57:25.002Z,100340.72
2023-04-15T05:59:55.281Z,100349.97
2023-04-15T06:02:22.132Z,100354.50
2023-04-15T06:04:48.695Z,100348.66
2023-04-15T06:07:15.725Z,100350.75
2023-04-15T06:09:42.461Z,100350.50
2023-04-15T06:12:12.137Z,100351.06
2023-04-15T06:14:39.307Z,100356.75
2023-04-15T06:17:06.012Z,100357.31
2023-04-15T06:19:32.906Z,100366.22
2023-04-15T06:24:26.159Z,100372.81
2023-04-15T06:26:52.573Z,100368.97
2023-04-15T06:29:19.227Z,100367.91
2023-04-15T06:31:48.170Z,100382.72
2023-04-15T06:34:14.606Z,100377.22
2023-04-15T06:36:41.390Z,100378.16
2023-04-15T06:39:07.760Z,100382.66
2023-04-15T06:41:34.461Z,100381.13
2023-04-15T06:44:01.187Z,100376.00
2023-04-15T06:46:27.752Z,100378.09
2023-04-15T06:48:54.182Z,100385.38
2023-04-15T06:51:20.685Z,100386.63
2023-04-15T06:53:47.154Z,100388.72
2023-04-15T06:56:13.632Z,100396.31
2023-04-15T06:58:40.013Z,100389.25
2023-04-15T07:01:06.665Z,100396.91
2023-04-15T07:03:33.374Z,100388.16
2023-04-15T07:05:59.846Z,100394.19
2023-04-15T07:08:26.556Z,100387.53
2023-04-15T07:10:54.029Z,100382.88
2023-04-15T07:13:21.080Z,100377.81
2023-04-15T07:15:47.670Z,100389.50
2023-04-15T07:18:14.117Z,100391.69
2023-04-15T07:20:40.693Z,100387.81
2023-04-15T07:23:07.294Z,100383.56
2023-04-15T07:25:34.042Z,100391.28
2023-04-15T07:28:00.614Z,100387.06
2023-04-15T07:30:27.335Z,100386.47
2023-04-15T07:32:54.187Z,100385.81
2023-04-15T07:35:21.537Z,100384.38
2023-04-15T07:37:48.436Z,100378.50
2023-04-15T07:40:16.281Z,100380.22
2023-04-15T07:42:43.647Z,100389.44
2023-04-15T07:45:11.039Z,100386.41
2023-04-15T07:47:37.503Z,100392.84
2023-04-15T07:50:04.140Z,100393.72
2023-04-15T07:52:30.953Z,100386.25
2023-04-15T07:54:57.290Z,100396.75
2023-04-15T07:57:23.674Z,100402.41
2023-04-15T07:59:50.037Z,100402.88
2023-04-15T08:02:16.628Z,100397.81
2023-04-15T08:04:43.390Z,100394.25
2023-04-15T08:07:10.336Z,100403.09
2023-04-15T08:09:36.904Z,100401.91
2023-04-15T08:12:03.704Z,100404.00
2023-04-15T08:14:30.248Z,100400.81
2023-04-15T08:16:57.100Z,100410.81
2023-04-15T08:19:24.383Z,100402.88
2023-04-15T08:21:51.941Z,100419.34
2023-04-15T08:24:18.692Z,100417.00
2023-04-15T08:26:47.030Z,100413.47
2023-04-15T08:29:13.848Z,100417.50
2023-04-15T08:31:40.339Z,100417.16
2023-04-15T08:34:06.727Z,100421.19
2023-04-15T08:36:33.603Z,100419.19
2023-04-15T08:39:02.255Z,100420.00
2023-04-15T08:41:35.739Z,100429.19
2023-04-15T08:44:05.031Z,100419.66
2023-04-15T08:46:34.742Z,100427.66
2023-04-15T08:49:05.286Z,100426.84
2023-04-15T08:51:32.245Z,100432.06
2023-04-15T08:53:59.608Z,100440.06
2023-04-15T08:56:28.276Z,100426.94
2023-04-15T08:58:55.258Z,100432.94
2023-04-15T09:01:22.750Z,100439.41
2023-04-15T09:03:50.685Z,100433.91
2023-04-15T09:06:18.118Z,100447.97
2023-04-15T09:08:44.910Z,100450.03
2023-04-15T09:11:11.396Z,100448.47
2023-04-15T09:13:38.180Z,100443.31
2023-04-15T09:16:06.374Z,100442.16
2023-04-15T09:18:37.081Z,100452.13
2023-04-15T09:21:08.903Z,100452.22
2023-04-15T09:23:36.224Z,100462.22
2023-04-15T09:26:03.650Z,100465.81
2023-04-15T09:28:30.917Z,100463.41
2023-04-15T09:30:58.284Z,100458.19
2023-04-15T09:33:26.999Z,100461.78
2023-04-15T09:35:58.975Z,100467.38
2023-04-15T09:38:25.589Z,100465.81
2023-04-15T09:40:52.263Z,100472.22
2023-04-15T09:43:18.985Z,100471.88
2023-04-15T09:45:53.298Z,100475.84
2023-04-15T09:48:26.803Z,100475.84
2023-04-15T09:50:57.706Z,100472.28
2023-04-15T09:53:26.010Z,100477.53
2023-04-15T09:55:56.692Z,100469.16
2023-04-15T09:58:30.338Z,100479.94
2023-04-15T10:00:58.994Z,100483.53
2023-04-15T10:03:26.652Z,100485.16
2023-04-15T10:05:54.690Z,100491.22
2023-04-15T10:08:24.075Z,100492.81
2023-04-15T10:10:54.627Z,100493.25
2023-04-15T10:13:23.942Z,100491.72
2023-04-15T10:16:02.887Z,100490.09
2023-04-15T10:18:34.432Z,100490.16
2023-04-15T10:21:01.870Z,100499.78
2023-04-15T10:23:28.770Z,100489.41
2023-04-15T10:25:55.510Z,100500.22
2023-04-15T10:28:25.556Z,100496.63
2023-04-15T10:30:53.875Z,100496.63
2023-04-15T10:33:24.300Z,100493.03
2023-04-15T10:35:52.854Z,100499.41
2023-04-15T10:38:41.895Z,100501.03
2023-04-15T10:41:19.945Z,100510.22
2023-04-15T10:43:54.979Z,100511.41
2023-04-15T10:46:25.636Z,100513.03
2023-04-15T10:48:54.060Z,100510.59
2023-04-15T10:51:29.971Z,100517.00
2023-04-15T10:53:58.973Z,100521.88
2023-04-15T10:56:26.296Z,100512.66
2023-04-15T10:58:52.698Z,100521.06
2023-04-15T11:01:23.079Z,100517.81
2023-04-15T11:03:57.203Z,100519.78
2023-04-15T11:06:44.829Z,100526.16
2023-04-15T11:09:32.088Z,100532.56
2023-04-15T11:12:09.732Z,100534.97
2023-04-15T11:14:40.644Z,100532.59
2023-04-15T11:17:07.524Z,100535.41
2023-04-15T11:19:38.864Z,100541.38
2023-04-15T11:22:09.786Z,100540.97
2023-04-15T11:24:37.536Z,100551.03
2023-04-15T11:27:04.244Z,100540.97
2023-04-15T11:29:33.283Z,100540.94
2023-04-15T11:32:09.221Z,100552.03
2023-04-15T11:34:36.347Z,100549.25
2023-04-15T11:37:08.027Z,100541.16
2023-04-15T11:39:34.415Z,100546.75
2023-04-15T11:42:00.813Z,100554.75
2023-04-15T11:44:27.103Z,100551.97
2023-04-15T11:46:55.986Z,100556.38
2023-04-15T11:49:33.837Z,100560.81
2023-04-15T11:52:01.394Z,100555.72
2023-04-15T11:54:28.041Z,100554.16
2023-04-15T11:56:54.826Z,100559.41
2023-04-15T11:59:21.274Z,100562.63
2023-04-15T12:01:47.977Z,100567.84
2023-04-15T12:04:25.217Z,100573.09
2023-04-15T12:06:52.359Z,100570.34
2023-04-15T12:09:20.330Z,100578.00
2023-04-15T12:11:52.799Z,100574.03
2023-04-15T12:14:25.955Z,100586.81
2023-04-15T12:16:54.970Z,100579.69
2023-04-15T12:19:25.883Z,100583.31
2023-04-15T12:22:04.274Z,100592.50
2023-04-15T12:24:35.800Z,100593.31
2023-04-15T12:27:04.458Z,100600.97
2023-04-15T12:29:31.874Z,100604.56
2023-04-15T12:32:12.574Z,100606.94
2023-04-15T12:34:45.065Z,100614.22
2023-04-15T12:37:13.405Z,100619.00
2023-04-15T12:39:42.469Z,100622.63
2023-04-15T12:42:10.024Z,100626.22
2023-04-15T12:44:37.949Z,100621.44
2023-04-15T12:47:05.625Z,100621.44
2023-04-15T12:49:32.734Z,100627.03
2023-04-15T12:52:03.246Z,100630.63
2023-04-15T12:54:33.309Z,100635.44
2023-04-15T12:57:00.804Z,100636.66
2023-04-15T12:59:28.892Z,100631.06
2023-04-15T13:01:58.467Z,100631.88
2023-04-15T13:04:30.565Z,100640.28
2023-04-15T13:06:57.661Z,100646.25
2023-04-15T13:09:24.024Z,100644.25
2023-04-15T13:11:51.043Z,100650.22
2023-04-15T13:14:17.656Z,100650.59
2023-04-15T13:16:44.031Z,100652.56
2023-04-15T13:19:10.588Z,100650.16
2023-04-15T13:21:37.546Z,100651.31
2023-04-15T13:24:04.870Z,100660.53
2023-04-15T13:26:31.875Z,100654.94
2023-04-15T13:28:58.667Z,100653.75
2023-04-15T13:31:25.702Z,100655.38
2023-04-15T13:33:52.132Z,100659.44
2023-04-15T13:36:18.587Z,100661.84
2023-04-15T13:38:44.912Z,100668.31
2023-04-15T13:41:11.516Z,100664.81
2023-04-15T13:43:37.863Z,100668.50
2023-04-15T13:46:04.559Z,100665.75
2023-04-15T13:48:31.188Z,100675.41
2023-04-15T13:50:57.496Z,100677.81
2023-04-15T13:53:33.874Z,100679.44
2023-04-15T13:56:08.978Z,100677.09
2023-04-15T13:58:37.344Z,100677.09
2023-04-15T14:01:05.669Z,100682.69
2023-04-15T14:03:34.324Z,100691.47
2023-04-15T14:06:01.408Z,100692.28
2023-04-15T14:08:27.854Z,100701.81
2023-04-15T14:10:54.496Z,100698.22
2023-04-15T14:13:20.954Z,100702.59
2023-04-15T14:15:47.483Z,100700.97
2023-04-15T14:18:13.960Z,100701.31
2023-04-15T14:20:40.537Z,100708.09
2023-04-15T14:23:07.349Z,100710.09
2023-04-15T14:25:34.318Z,100714.06
2023-04-15T14:28:01.813Z,100718.88
2023-04-15T14:30:28.460Z,100710.47
2023-04-15T14:32:55.369Z,100721.66
2023-04-15T14:35:21.805Z,100716.06
2023-04-15T14:37:48.125Z,100721.66
2023-04-15T14:40:14.620Z,100727.25
2023-04-15T14:42:40.968Z,100720.84
2023-04-15T14:45:07.894Z,100720.41
2023-04-15T14:47:34.337Z,100726.00
2023-04-15T14:50:00.940Z,100731.59
2023-04-15T14:52:27.244Z,100734.38
2023-04-15T14:54:53.590Z,100729.16
2023-04-15T14:57:19.958Z,100740.34
2023-04-15T14:59:46.604Z,100743.50
2023-04-15T15:02:17.346Z,100746.31
2023-04-15T15:04:52.954Z,100743.88
2023-04-15T15:07:19.431Z,100754.25
2023-04-15T15:09:46.034Z,100740.19
2023-04-15T15:12:12.411Z,100749.75
2023-04-15T15:14:38.779Z,100756.91
2023-04-15T15:17:05.451Z,100764.84
2023-04-15T15:19:32.073Z,100768.03
2023-04-15T15:21:59.257Z,100774.00
2023-04-15T15:24:25.564Z,100773.16
2023-04-15T15:26:51.950Z,100779.50
2023-04-15T15:29:18.275Z,100780.31
2023-04-15T15:31:44.664Z,100792.31
2023-04-15T15:34:11.308Z,100791.50
2023-04-15T15:36:37.691Z,100793.81
2023-04-15T15:39:05.059Z,100792.69
2023-04-15T15:41:33.325Z,100793.03
2023-04-15T15:43:59.894Z,100797.47
2023-04-15T15:46:29.134Z,100800.59
2023-04-15T15:48:58.315Z,100808.66
2023-04-15T15:51:25.037Z,100813.41
2023-04-15T15:53:51.433Z,100822.97
2023-04-15T15:56:17.861Z,100815.78
2023-04-15T15:58:44.997Z,100826.16
2023-04-15T16:01:11.970Z,100824.53
2023-04-15T16:03:38.521Z,100826.53
2023-04-15T16:06:05.577Z,100830.47
2023-04-15T16:08:32.130Z,100829.66
2023-04-15T16:10:58.688Z,100837.63
2023-04-15T16:13:25.109Z,100839.94
2023-04-15T16:15:51.491Z,100847.91
2023-04-15T16:18:18.590Z,100839.88
2023-04-15T16:20:45.211Z,100843.03
2023-04-15T16:23:16.888Z,100842.50
2023-04-15T16:25:44.550Z,100849.25
2023-04-15T16:28:25.225Z,100856.41
2023-04-15T16:30:53.291Z,100856.75
2023-04-15T16:33:19.650Z,100853.50
2023-04-15T16:35:46.252Z,100850.25
2023-04-15T16:38:12.899Z,100864.59
2023-04-15T16:40:39.557Z,100868.56
2023-04-15T16:43:11.349Z,100868.09
2023-04-15T16:45:38.338Z,100872.88
2023-04-15T16:48:05.002Z,100870.47
2023-04-15T16:50:31.757Z,100871.63
2023-04-15T16:52:58.121Z,100882.44
2023-04-15T16:55:24.831Z,100882.81
2023-04-15T16:58:00.709Z,100889.59
2023-04-15T17:00:29.278Z,100880.03
2023-04-15T17:02:55.851Z,100893.19
2023-04-15T17:05:22.549Z,100890.75
2023-04-15T17:07:49.017Z,100897.50
2023-04-15T17:10:15.749Z,100905.91
2023-04-15T17:12:42.079Z,100909.88
2023-04-15T17:15:09.243Z,100900.19
2023-04-15T17:17:35.804Z,100914.53
2023-04-15T17:20:02.217Z,100913.72
2023-04-15T17:22:28.640Z,100910.13
2023-04-15T17:24:55.166Z,100917.72
2023-04-15T17:27:24.682Z,100917.22
2023-04-15T17:29:51.053Z,100924.38
2023-04-15T17:32:17.644Z,100927.16
2023-04-15T17:34:50.696Z,100931.13
2023-04-15T17:37:18.048Z,100927.88
2023-04-15T17:39:44.447Z,100927.41
2023-04-15T17:42:11.552Z,100937.75
2023-04-15T17:44:37.909Z,100934.16
2023-04-15T17:47:04.524Z,100938.56
2023-04-15T17:49:31.220Z,100940.22
2023-04-15T17:51:59.504Z,100945.81
2023-04-15T17:54:25.823Z,100946.63
2023-04-15T17:56:52.213Z,100953.03
2023-04-15T17:59:18.586Z,100952.22
2023-04-15T18:01:48.252Z,100954.19
2023-04-15T18:04:15.041Z,100957.34
2023-04-15T18:06:41.704Z,100958.84
2023-04-15T18:09:11.262Z,100965.97
2023-04-15T18:11:39.864Z,100972.69
2023-04-15T18:14:06.639Z,100970.72
2023-04-15T18:16:33.354Z,100972.38
2023-04-15T18:18:59.939Z,100977.47
2023-04-15T18:21:27.250Z,100984.25
2023-04-15T18:23:53.652Z,100972.63
2023-04-15T18:26:19.989Z,100983.81
2023-04-15T18:28:46.412Z,100984.13
2023-04-15T18:31:12.824Z,100988.59
2023-04-15T18:33:39.229Z,100988.59
2023-04-15T18:36:05.785Z,100996.59
2023-04-15T18:38:32.581Z,100996.59
2023-04-15T18:40:58.974Z,101004.19
2023-04-15T18:43:25.385Z,101014.19
2023-04-15T18:45:52.956Z,101014.53
2023-04-15T18:48:19.366Z,101013.72
2023-04-15T18:50:46.035Z,101016.88
2023-04-15T18:53:13.650Z,101018.47
2023-04-15T18:55:43.097Z,101020.81
2023-04-15T18:58:09.522Z,101026.41
2023-04-15T19:00:40.575Z,101035.97
2023-04-15T19:03:07.795Z,101037.97
2023-04-15T19:05:34.148Z,101029.91
2023-04-15T19:08:00.498Z,101032.38
2023-04-15T19:10:27.996Z,101028.75
2023-04-15T19:12:55.358Z,101040.75
2023-04-15T19:15:21.863Z,101045.53
2023-04-15T19:17:49.119Z,101041.56
2023-04-15T19:20:15.793Z,101051.94
2023-04-15T19:22:43.180Z,101048.31
2023-04-15T19:25:10.193Z,101045.53
2023-04-15T19:27:38.184Z,101046.34
2023-04-15T19:30:06.530Z,101045.53
2023-04-15T19:32:33.983Z,101041.56
2023-04-15T19:35:00.395Z,101049.94
2023-04-15T19:37:27.425Z,101061.56
2023-04-15T19:39:54.573Z,101058.34
2023-04-15T19:42:20.923Z,101061.94
2023-04-15T19:44:47.422Z,101069.16
2023-04-15T19:47:13.839Z,101071.94
2023-04-15T19:49:40.573Z,101073.13
2023-04-15T19:52:07.052Z,101077.09
2023-04-15T19:54:33.645Z,101079.06
2023-04-15T19:57:01.671Z,101075.44
2023-04-15T19:59:28.266Z,101090.25
2023-04-15T20:01:55.221Z,101085.47
2023-04-15T20:04:22.558Z,101081.84
2023-04-15T20:06:49.911Z,101086.59
2023-04-15T20:09:16.543Z,101083.00
2023-04-15T20:12:47.895Z,101084.16
2023-04-15T20:14:29.885Z,101086.16
2023-04-15T20:16:56.350Z,101093.72
2023-04-15T20:19:22.941Z,101091.75
2023-04-15T20:21:50.853Z,101092.91
2023-04-15T20:24:20.073Z,101091.28
2023-04-15T20:26:46.662Z,101096.53
2023-04-15T20:29:13.836Z,101096.16
2023-04-15T20:31:40.432Z,101101.75
2023-04-15T20:34:07.176Z,101105.72
2023-04-15T20:36:34.258Z,101112.94
2023-04-15T20:39:00.635Z,101114.91
2023-04-15T20:41:27.061Z,101103.72
2023-04-15T20:43:53.616Z,101108.50
2023-04-15T20:46:21.652Z,101112.94
2023-04-15T20:48:48.717Z,101113.41
2023-04-15T20:51:15.301Z,101110.94
2023-04-15T20:53:42.341Z,101118.19
2023-04-15T20:56:09.048Z,101123.78
2023-04-15T20:58:35.426Z,101120.97
2023-04-15T21:01:02.321Z,101113.41
2023-04-15T21:03:29.281Z,101119.00
2023-04-15T21:05:55.815Z,101128.19
2023-04-15T21:08:29.318Z,101130.63
2023-04-15T21:10:57.289Z,101126.22
2023-04-15T21:13:23.865Z,101128.63
2023-04-15T21:15:53.899Z,101132.59
2023-04-15T21:18:21.661Z,101132.59
2023-04-15T21:20:57.176Z,101133.31
2023-04-15T21:23:23.785Z,101132.97
2023-04-15T21:25:50.230Z,101141.69
2023-04-15T21:28:16.966Z,101140.88
2023-04-15T21:30:43.386Z,101141.22
2023-04-15T21:33:09.968Z,101140.06
2023-04-15T21:35:36.263Z,101139.25
2023-04-15T21:38:02.670Z,101144.84
2023-04-15T21:40:29.874Z,101150.44
2023-04-15T21:42:56.313Z,101149.25
2023-04-15T21:45:22.696Z,101153.66
2023-04-15T21:47:57.134Z,101144.16
2023-04-15T21:50:33.622Z,101152.97
2023-04-15T21:53:01.167Z,101156.94
2023-04-15T21:55:27.535Z,101160.56
2023-04-15T21:57:53.933Z,101161.38
2023-04-15T22:00:21.273Z,101166.13
2023-04-15T22:02:47.719Z,101169.75
2023-04-15T22:05:15.381Z,101169.75
2023-04-15T22:07:41.770Z,101169.75
2023-04-15T22:10:09.788Z,101164.97
2023-04-15T22:12:36.345Z,101162.53
2023-04-15T22:15:03.203Z,101166.94
2023-04-15T22:17:29.636Z,101170.56
2023-04-15T22:19:56.027Z,101165.34
2023-04-15T22:22:22.400Z,101172.09
2023-04-15T22:24:54.129Z,101167.31
2023-04-15T22:27:20.568Z,101172.91
2023-04-15T22:29:46.871Z,101172.09
2023-04-15T22:32:13.552Z,101171.28
2023-04-15T22:34:39.964Z,101180.94
2023-04-15T22:37:06.437Z,101179.31
2023-04-15T22:39:32.800Z,101187.69
2023-04-15T22:41:59.221Z,101185.69
2023-04-15T22:44:25.822Z,101196.06
2023-04-15T22:46:52.118Z,101189.66
2023-04-15T22:49:18.488Z,101195.25
2023-04-15T22:51:44.797Z,101198.88
2023-04-15T22:54:11.107Z,101195.25
2023-04-15T22:56:37.672Z,101205.25
2023-04-15T22:59:04.275Z,101202.47
2023-04-15T23:01:31.887Z,101204.09
2023-04-15T23:04:03.734Z,101208.50
2023-04-15T23:06:35.877Z,101213.41
2023-04-15T23:09:02.263Z,101218.66
2023-04-15T23:11:28.671Z,101221.09
2023-04-15T23:13:55.347Z,101212.72
2023-04-15T23:16:22.034Z,101225.03
2023-04-15T23:18:48.780Z,101225.88
2023-04-15T23:21:15.175Z,101225.03
2023-04-15T23:23:41.568Z,101223.44
2023-04-15T23:26:08.153Z,101231.81
2023-04-15T23:28:34.704Z,101229.00
2023-04-15T23:31:01.130Z,101225.41
2023-04-15T23:33:27.507Z,101234.28
2023-04-15T23:35:53.832Z,101227.84
2023-04-15T23:38:20.274Z,101230.63
2023-04-15T23:40:46.723Z,101225.03
2023-04-15T23:43:13.167Z,101227.84
2023-04-15T23:45:40.193Z,101227.03
2023-04-15T23:48:06.882Z,101227.03
2023-04-15T23:50:33.451Z,101227.84
2023-04-15T23:52:59.969Z,101228.69
2023-04-15T23:55:26.344Z,101235.41
2023-04-15T23:57:52.690Z,101238.22
